| time (UTC) | temp F | wind direction | speed knots | gust knots | rain 1hr in | rain 24hr in | rain mn in | humidity % | barometer mb |
| 20260902113014 | 62 | 113 | 0.9 | 7.0 | 0.00 | 0.09 | 0.09 | 90 | 1014.3 |
| 20260902112512 | 62 | 162 | 0.0 | 7.0 | 0.00 | 0.09 | 0.09 | 90 | 1014.3 |
| 20260902112012 | 62 | 112 | 0.0 | 3.5 | 0.00 | 0.09 | 0.09 | 89 | 1014.5 |
| 20260902111510 | 62 | 260 | 0.0 | 3.5 | 0.00 | 0.09 | 0.09 | 89 | 1014.6 |
| 20260902111011 | 63 | 126 | 0.0 | 7.0 | 0.00 | 0.09 | 0.09 | 88 | 1014.7 |
| 20260902110510 | 63 | 355 | 0.9 | 7.0 | 0.01 | 0.09 | 0.09 | 87 | 1014.7 |
| 20260902110024 | 63 | 175 | 1.7 | 7.0 | 0.01 | 0.09 | 0.09 | 87 | 1014.8 |
| 20260902105507 | 63 | 119 | 0.0 | 6.1 | 0.01 | 0.09 | 0.09 | 89 | 1014.9 |
| 20260902105007 | 63 | 304 | 0.0 | 6.1 | 0.01 | 0.09 | 0.09 | 89 | 1014.9 |
| 20260902104521 | 63 | 119 | 0.0 | 3.5 | 0.01 | 0.09 | 0.09 | 89 | 1015.0 |
| 20260902104005 | 63 | 250 | 0.9 | 3.5 | 0.01 | 0.09 | 0.09 | 88 | 1015.0 |
| 20260902103506 | 63 | 120 | 0.0 | 3.5 | 0.01 | 0.09 | 0.09 | 89 | 1015.0 |
| 20260902103006 | 62 | 118 | 0.0 | 3.5 | 0.01 | 0.09 | 0.09 | 89 | 1015.1 |
| 20260902102503 | 62 | 196 | 0.0 | 5.2 | 0.01 | 0.09 | 0.09 | 90 | 1015.1 |
| 20260902102001 | 62 | 158 | 0.0 | 5.2 | 0.02 | 0.09 | 0.09 | 90 | 1015.1 |
| 20260902101605 | 62 | 116 | 0.9 | 3.5 | 0.02 | 0.09 | 0.09 | 91 | 1015.2 |
| 20260902101059 | 61 | 136 | 0.0 | 5.2 | 0.02 | 0.09 | 0.09 | 92 | 1015.2 |
| 20260902100558 | 61 | 121 | 0.0 | 5.2 | 0.02 | 0.09 | 0.09 | 92 | 1015.2 |
| 20260902100123 | 61 | 138 | 0.9 | 4.3 | 0.02 | 0.09 | 0.09 | 92 | 1015.3 |
| 20260902095600 | 60 | 119 | 0.0 | 3.5 | 0.02 | 0.09 | 0.09 | 92 | 1015.3 |
| 20260902095053 | 60 | 117 | 0.0 | 3.5 | 0.02 | 0.09 | 0.09 | 92 | 1015.4 |
| 20260902094553 | 60 | 140 | 0.0 | 1.7 | 0.02 | 0.09 | 0.09 | 93 | 1015.4 |
| 20260902094052 | 60 | 135 | 0.0 | 3.5 | 0.02 | 0.09 | 0.09 | 92 | 1015.5 |
| 20260902093551 | 60 | 148 | 0.0 | 3.5 | 0.02 | 0.09 | 0.09 | 92 | 1015.5 |
| 20260902093058 | 60 | 136 | 0.0 | 2.6 | 0.02 | 0.09 | 0.09 | 92 | 1015.5 |
| 20260902092549 | 60 | 120 | 0.0 | 2.6 | 0.02 | 0.09 | 0.09 | 92 | 1015.6 |
| 20260902092050 | 60 | 131 | 0.0 | 6.1 | 0.02 | 0.08 | 0.08 | 92 | 1015.7 |
| 20260902091550 | 60 | 132 | 0.0 | 4.3 | 0.02 | 0.07 | 0.07 | 92 | 1015.8 |
| 20260902091048 | 60 | 146 | 0.0 | 4.3 | 0.02 | 0.07 | 0.07 | 92 | 1015.8 |
| 20260902090548 | 60 | 117 | 0.0 | 3.5 | 0.02 | 0.07 | 0.07 | 92 | 1015.9 |
| 20260902090046 | 60 | 115 | 0.0 | 3.5 | 0.02 | 0.07 | 0.07 | 92 | 1016.0 |
| 20260902085548 | 59 | 168 | 0.0 | 0.0 | 0.02 | 0.07 | 0.07 | 93 | 1016.0 |
| 20260902085045 | 59 | 164 | 0.0 | 0.9 | 0.02 | 0.07 | 0.07 | 93 | 1015.9 |
| 20260902084544 | 59 | 154 | 0.0 | 0.9 | 0.02 | 0.07 | 0.07 | 92 | 1015.9 |
| 20260902084043 | 59 | 175 | 0.0 | 0.9 | 0.02 | 0.06 | 0.06 | 92 | 1015.9 |
| 20260902083542 | 59 | 178 | 0.0 | 0.9 | 0.02 | 0.06 | 0.06 | 92 | 1015.9 |
| 20260902083056 | 59 | 153 | 0.0 | 0.9 | 0.02 | 0.06 | 0.06 | 92 | 1016.0 |
| 20260902082542 | 59 | 145 | 0.0 | 0.9 | 0.03 | 0.06 | 0.06 | 92 | 1016.0 |
| 20260902082043 | 59 | 142 | 0.0 | 0.0 | 0.03 | 0.06 | 0.06 | 92 | 1016.1 |
| 20260902081605 | 59 | 141 | 0.0 | 0.9 | 0.03 | 0.06 | 0.06 | 92 | 1016.1 |
| 20260902081042 | 59 | 142 | 0.0 | 0.9 | 0.03 | 0.06 | 0.06 | 92 | 1016.1 |
| 20260902080546 | 59 | 128 | 0.0 | 0.0 | 0.03 | 0.06 | 0.06 | 93 | 1016.1 |
| 20260902080053 | 59 | 128 | 0.0 | 0.0 | 0.04 | 0.06 | 0.06 | 93 | 1016.1 |
| 20260902075540 | 59 | 128 | 0.0 | 0.0 | 0.04 | 0.06 | 0.06 | 92 | 1016.1 |
| 20260902075039 | 59 | 128 | 0.0 | 0.0 | 0.04 | 0.06 | 0.06 | 92 | 1016.1 |
| 20260902074543 | 59 | 128 | 0.0 | 0.0 | 0.04 | 0.06 | 0.06 | 92 | 1016.0 |
| 20260902074037 | 59 | 128 | 0.0 | 0.0 | 0.04 | 0.05 | 0.05 | 92 | 1016.0 |
| 20260902073538 | 59 | 126 | 0.0 | 0.0 | 0.04 | 0.05 | 0.05 | 92 | 1016.0 |
| 20260902073036 | 58 | 126 | 0.0 | 0.0 | 0.03 | 0.04 | 0.04 | 92 | 1016.1 |
| 20260902072535 | 58 | 126 | 0.0 | 0.0 | 0.03 | 0.03 | 0.03 | 92 | 1016.0 |
| 20260902072035 | 59 | 126 | 0.0 | 0.9 | 0.02 | 0.02 | 0.02 | 92 | 1016.0 |
| 20260902071537 | 58 | 186 | 0.0 | 0.9 | 0.02 | 0.02 | 0.02 | 91 | 1016.0 |
| 20260902071033 | 59 | 161 | 0.0 | 0.0 | 0.02 | 0.02 | 0.02 | 92 | 1016.0 |
| 20260902070534 | 59 | 161 | 0.0 | 0.0 | 0.02 | 0.02 | 0.02 | 91 | 1016.0 |
| 20260902070036 | 59 | 161 | 0.0 | 0.0 | 0.02 | 0.02 | 0.02 | 91 | 1015.9 |
| 20260902065532 | 58 | 178 | 0.0 | 0.0 | 0.02 | 0.02 | 0.02 | 91 | 1015.8 |
| 20260902065032 | 58 | 225 | 0.0 | 0.0 | 0.02 | 0.02 | 0.02 | 91 | 1015.8 |
| 20260902064531 | 58 | 132 | 0.0 | 0.9 | 0.02 | 0.02 | 0.02 | 91 | 1015.8 |
| 20260902064032 | 58 | 131 | 0.0 | 0.0 | 0.01 | 0.01 | 0.01 | 90 | 1015.9 |
| 20260902063530 | 58 | 132 | 0.0 | 0.0 | 0.01 | 0.01 | 0.01 | 90 | 1015.9 |
| 20260902063034 | 58 | 132 | 0.0 | 0.0 | 0.01 | 0.01 | 0.01 | 90 | 1015.9 |
| 20260902062531 | 59 | 128 | 0.0 | 0.0 | 0.00 | 0.00 | 0.00 | 90 | 1015.8 |
| 20260902062029 | 59 | 118 | 0.0 | 0.0 | 0.00 | 0.00 | 0.00 | 90 | 1016.0 |
| 20260902061529 | 59 | 118 | 0.0 | 0.0 | 0.00 | 0.00 | 0.00 | 89 | 1015.9 |
| 20260902061036 | 59 | 117 | 0.0 | 0.0 | 0.00 | 0.00 | 0.00 | 89 | 1015.8 |
| 20260902060528 | 59 | 117 | 0.0 | 0.0 | 0.00 | 0.00 | 0.00 | 89 | 1015.8 |
| 20260902060033 | 59 | 117 | 0.0 | 0.0 | 0.00 | 0.00 | 0.00 | 88 | 1015.8 |
| 20260902055526 | 59 | 115 | 0.0 | 0.0 | 0.00 | 0.00 | 0.00 | 88 | 1015.7 |
| 20260902055026 | 59 | 115 | 0.0 | 0.0 | 0.00 | 0.00 | 0.00 | 88 | 1015.7 |
| 20260902054526 | 59 | 115 | 0.0 | 0.9 | 0.00 | 0.00 | 0.00 | 88 | 1015.7 |
| 20260902054026 | 59 | 115 | 0.0 | 0.9 | 0.00 | 0.00 | 0.00 | 88 | 1015.8 |
| 20260902053526 | 59 | 101 | 0.0 | 0.9 | 0.00 | 0.00 | 0.00 | 87 | 1015.8 |
| 20260902053026 | 59 | 70 | 0.0 | 0.9 | 0.00 | 0.00 | 0.00 | 87 | 1015.8 |
| 20260902052525 | 59 | 69 | 0.0 | 0.9 | 0.00 | 0.00 | 0.00 | 87 | 1015.8 |
| 20260902052025 | 59 | 317 | 0.0 | 0.0 | 0.00 | 0.00 | 0.00 | 87 | 1015.8 |
| 20260902051525 | 59 | 302 | 0.0 | 0.9 | 0.00 | 0.00 | 0.00 | 88 | 1015.6 |
| 20260902051027 | 58 | 302 | 0.0 | 0.9 | 0.00 | 0.00 | 0.00 | 88 | 1015.7 |
| 20260902050525 | 58 | 254 | 0.0 | 0.9 | 0.00 | 0.00 | 0.00 | 88 | 1015.8 |
| 20260902050025 | 58 | 167 | 0.0 | 0.9 | 0.00 | 0.00 | 0.00 | 88 | 1015.9 |
| 20260902045523 | 58 | 163 | 0.0 | 0.9 | 0.00 | 0.00 | 0.00 | 89 | 1015.8 |
| 20260902045023 | 58 | 162 | 0.0 | 0.9 | 0.00 | 0.00 | 0.00 | 89 | 1015.8 |
| 20260902044537 | 58 | 162 | 0.0 | 0.0 | 0.00 | 0.00 | 0.00 | 89 | 1015.8 |
| 20260902044024 | 58 | 162 | 0.0 | 0.0 | 0.00 | 0.00 | 0.00 | 89 | 1015.9 |
| 20260902043523 | 58 | 162 | 0.0 | 0.0 | 0.00 | 0.00 | 0.00 | 89 | 1015.9 |
| 20260902043023 | 58 | 162 | 0.0 | 0.0 | 0.00 | 0.00 | 0.00 | 88 | 1015.9 |
| 20260902042523 | 58 | 162 | 0.0 | 0.0 | 0.00 | 0.00 | 0.00 | 88 | 1015.8 |
| 20260902042023 | 58 | 162 | 0.0 | 0.0 | 0.00 | 0.00 | 0.00 | 89 | 1015.7 |
| 20260902041522 | 58 | 164 | 0.0 | 0.0 | 0.00 | 0.00 | 0.00 | 89 | 1015.7 |
| 20260902041021 | 58 | 155 | 0.0 | 0.0 | 0.00 | 0.00 | 0.00 | 89 | 1015.8 |
| 20260902040521 | 58 | 155 | 0.0 | 0.0 | 0.00 | 0.00 | 0.00 | 89 | 1015.9 |
| 20260902040022 | 57 | 157 | 0.0 | 0.0 | 0.00 | 0.00 | 0.00 | 89 | 1015.9 |
| 20260902035520 | 57 | 151 | 0.0 | 0.0 | 0.00 | 0.00 | 0.00 | 89 | 1015.9 |
| 20260902035020 | 57 | 151 | 0.0 | 0.9 | 0.00 | 0.00 | 0.00 | 89 | 1016.1 |
| 20260902034520 | 57 | 151 | 0.0 | 0.9 | 0.00 | 0.00 | 0.00 | 88 | 1016.0 |
| 20260902034019 | 57 | 151 | 0.0 | 0.0 | 0.00 | 0.00 | 0.00 | 88 | 1016.0 |
| 20260902033518 | 57 | 151 | 0.0 | 0.0 | 0.00 | 0.00 | 0.00 | 88 | 1016.0 |
| 20260902033018 | 57 | 151 | 0.0 | 0.0 | 0.00 | 0.00 | 0.00 | 88 | 1016.1 |
| 20260902032521 | 57 | 151 | 0.0 | 0.0 | 0.00 | 0.00 | 0.00 | 88 | 1016.1 |
| 20260902032017 | 57 | 151 | 0.0 | 0.0 | 0.00 | 0.00 | 0.00 | 88 | 1016.2 |
| 20260902031525 | 57 | 151 | 0.0 | 0.0 | 0.00 | 0.00 | 0.00 | 88 | 1016.2 |
| 20260902031017 | 57 | 151 | 0.0 | 0.0 | 0.00 | 0.00 | 0.00 | 88 | 1016.2 |
| 20260902030517 | 57 | 151 | 0.0 | 0.0 | 0.00 | 0.00 | 0.00 | 88 | 1016.2 |
| 20260902030015 | 57 | 152 | 0.0 | 0.0 | 0.00 | 0.00 | 0.00 | 88 | 1016.3 |
| 20260902025515 | 57 | 152 | 0.0 | 0.0 | 0.00 | 0.00 | 0.00 | 88 | 1016.2 |
| 20260902025015 | 57 | 153 | 0.0 | 0.0 | 0.00 | 0.00 | 0.00 | 87 | 1016.3 |
| 20260902024513 | 57 | 153 | 0.0 | 0.0 | 0.00 | 0.00 | 0.00 | 87 | 1016.4 |
| 20260902024017 | 57 | 153 | 0.0 | 0.0 | 0.00 | 0.00 | 0.00 | 87 | 1016.4 |
| 20260902023513 | 57 | 153 | 0.0 | 0.0 | 0.00 | 0.00 | 0.00 | 87 | 1016.5 |
| 20260902023012 | 57 | 153 | 0.0 | 0.0 | 0.00 | 0.00 | 0.00 | 87 | 1016.5 |
| 20260902022513 | 58 | 153 | 0.0 | 0.9 | 0.00 | 0.00 | 0.00 | 87 | 1016.5 |
| 20260902022011 | 58 | 146 | 0.0 | 0.9 | 0.00 | 0.00 | 0.00 | 87 | 1016.5 |
| 20260902021515 | 58 | 145 | 0.0 | 0.0 | 0.00 | 0.00 | 0.00 | 86 | 1016.6 |
| 20260902021011 | 58 | 145 | 0.0 | 1.7 | 0.00 | 0.00 | 0.00 | 87 | 1016.7 |
| 20260902020512 | 58 | 142 | 0.0 | 1.7 | 0.00 | 0.00 | 0.00 | 86 | 1016.6 |
| 20260902020011 | 58 | 159 | 0.0 | 1.7 | 0.00 | 0.00 | 0.00 | 86 | 1016.6 |
| 20260902015510 | 58 | 157 | 0.0 | 0.9 | 0.00 | 0.00 | 0.00 | 86 | 1016.7 |
| 20260902015009 | 58 | 157 | 0.0 | 1.7 | 0.00 | 0.00 | 0.00 | 86 | 1016.8 |
| 20260902014526 | 58 | 155 | 0.0 | 2.6 | 0.00 | 0.00 | 0.00 | 86 | 1016.7 |
| 20260902014008 | 58 | 155 | 0.0 | 2.6 | 0.00 | 0.00 | 0.00 | 86 | 1016.7 |
| 20260902013508 | 58 | 306 | 0.0 | 2.6 | 0.00 | 0.00 | 0.00 | 86 | 1016.6 |
| 20260902013008 | 58 | 305 | 0.0 | 2.6 | 0.00 | 0.00 | 0.00 | 85 | 1016.6 |
| 20260902012509 | 58 | 273 | 0.0 | 2.6 | 0.00 | 0.00 | 0.00 | 85 | 1016.5 |
| 20260902012011 | 58 | 128 | 0.0 | 2.6 | 0.00 | 0.00 | 0.00 | 85 | 1016.5 |
| 20260902011507 | 58 | 340 | 0.0 | 2.6 | 0.00 | 0.00 | 0.00 | 85 | 1016.5 |
| 20260902011008 | 58 | 234 | 0.0 | 1.7 | 0.00 | 0.00 | 0.00 | 85 | 1016.6 |
| 20260902010507 | 59 | 255 | 0.0 | 1.7 | 0.00 | 0.00 | 0.00 | 84 | 1016.5 |
| 20260902010005 | 59 | 143 | 0.0 | 1.7 | 0.00 | 0.00 | 0.00 | 84 | 1016.6 |
| 20260902005505 | 59 | 157 | 0.0 | 2.6 | 0.00 | 0.00 | 0.00 | 84 | 1016.5 |
| 20260902005006 | 59 | 152 | 0.0 | 2.6 | 0.00 | 0.00 | 0.00 | 84 | 1016.6 |
| 20260902004504 | 59 | 105 | 0.0 | 3.5 | 0.00 | 0.00 | 0.00 | 84 | 1016.8 |
| 20260902004003 | 59 | 181 | 0.0 | 3.5 | 0.00 | 0.00 | 0.00 | 84 | 1016.8 |
| 20260902003503 | 59 | 319 | 0.0 | 1.7 | 0.00 | 0.00 | 0.00 | 84 | 1016.8 |
| 20260902003005 | 59 | 198 | 0.0 | 2.6 | 0.00 | 0.00 | 0.00 | 83 | 1016.8 |
| 20260902002502 | 59 | 290 | 0.0 | 2.6 | 0.00 | 0.00 | 0.00 | 83 | 1016.8 |
| 20260902002002 | 59 | 351 | 0.0 | 2.6 | 0.00 | 0.00 | 0.00 | 83 | 1016.9 |
| 20260902001502 | 59 | 190 | 0.0 | 4.3 | 0.00 | 0.00 | 0.00 | 83 | 1016.9 |
| 20260902001002 | 59 | 167 | 0.0 | 4.3 | 0.00 | 0.00 | 0.00 | 83 | 1016.9 |
| 20260902000501 | 59 | 207 | 0.0 | 3.5 | 0.00 | 0.00 | 0.00 | 83 | 1016.9 |
| 20260902000101 | 59 | 315 | 0.0 | 5.2 | 0.00 | 0.00 | 0.00 | 83 | 1016.9 |
| 20260902000002 | 59 | 315 | 0.0 | 5.2 | 0.00 | 0.00 | 0.00 | 83 | 1016.9 |
| 20260901235600 | 59 | 320 | 1.7 | 5.2 | 0.00 | 0.00 | 0.00 | 83 | 1016.9 |
| 20260901235059 | 59 | 141 | 0.0 | 2.6 | 0.00 | 0.00 | 0.00 | 83 | 1016.9 |
| 20260901234611 | 59 | 302 | 0.0 | 2.6 | 0.00 | 0.00 | 0.00 | 83 | 1016.9 |
| 20260901234102 | 59 | 302 | 0.0 | 1.7 | 0.00 | 0.00 | 0.00 | 83 | 1016.9 |
| 20260901233559 | 60 | 288 | 0.0 | 2.6 | 0.00 | 0.00 | 0.00 | 83 | 1016.8 |
| 20260901233059 | 60 | 271 | 0.0 | 2.6 | 0.00 | 0.00 | 0.00 | 83 | 1016.8 |
| 20260901232557 | 60 | 247 | 0.0 | 2.6 | 0.00 | 0.00 | 0.00 | 83 | 1016.8 |
| 20260901232057 | 60 | 39 | 0.0 | 2.6 | 0.00 | 0.00 | 0.00 | 83 | 1016.8 |
| 20260901231557 | 60 | 130 | 0.0 | 1.7 | 0.00 | 0.00 | 0.00 | 83 | 1016.7 |
| 20260901231055 | 60 | 172 | 0.0 | 1.7 | 0.00 | 0.00 | 0.00 | 83 | 1016.7 |
| 20260901230555 | 60 | 171 | 0.0 | 1.7 | 0.00 | 0.00 | 0.00 | 82 | 1016.8 |
| 20260901230056 | 60 | 171 | 0.0 | 2.6 | 0.00 | 0.00 | 0.00 | 82 | 1016.8 |
| 20260901225553 | 60 | 179 | 0.0 | 2.6 | 0.00 | 0.00 | 0.00 | 82 | 1017.0 |
| 20260901225053 | 61 | 5 | 0.0 | 1.7 | 0.00 | 0.00 | 0.00 | 82 | 1017.0 |
| 20260901224554 | 61 | 258 | 0.0 | 1.7 | 0.00 | 0.00 | 0.00 | 82 | 1017.0 |
| 20260901224052 | 61 | 216 | 0.0 | 2.6 | 0.00 | 0.00 | 0.00 | 81 | 1017.2 |
| 20260901223553 | 61 | 193 | 0.0 | 2.6 | 0.00 | 0.00 | 0.00 | 81 | 1017.2 |
| 20260901223100 | 61 | 195 | 0.0 | 2.6 | 0.00 | 0.00 | 0.00 | 81 | 1017.2 |
| 20260901222552 | 61 | 162 | 0.0 | 2.6 | 0.00 | 0.00 | 0.00 | 81 | 1017.1 |
| 20260901222052 | 61 | 174 | 0.0 | 2.6 | 0.00 | 0.00 | 0.00 | 81 | 1017.0 |
| 20260901221610 | 61 | 168 | 0.0 | 2.6 | 0.00 | 0.00 | 0.00 | 81 | 1017.0 |
| 20260901221052 | 61 | 202 | 0.0 | 2.6 | 0.00 | 0.00 | 0.00 | 80 | 1017.0 |
| 20260901220551 | 61 | 307 | 0.0 | 2.6 | 0.00 | 0.00 | 0.00 | 80 | 1017.1 |
| 20260901220051 | 61 | 169 | 0.0 | 0.9 | 0.00 | 0.00 | 0.00 | 80 | 1017.0 |
| 20260901215551 | 61 | 167 | 0.0 | 5.2 | 0.00 | 0.00 | 0.00 | 79 | 1017.0 |
| 20260901215051 | 61 | 165 | 0.9 | 4.3 | 0.00 | 0.00 | 0.00 | 79 | 1017.1 |
| 20260901214550 | 61 | 173 | 0.0 | 2.6 | 0.00 | 0.00 | 0.00 | 79 | 1017.0 |
| 20260901214050 | 61 | 182 | 0.0 | 2.6 | 0.00 | 0.00 | 0.00 | 78 | 1017.1 |
| 20260901213550 | 62 | 327 | 0.0 | 2.6 | 0.00 | 0.00 | 0.00 | 77 | 1017.1 |
| 20260901213102 | 62 | 355 | 0.0 | 2.6 | 0.00 | 0.00 | 0.00 | 77 | 1017.1 |
| 20260901212552 | 62 | 319 | 0.0 | 3.5 | 0.00 | 0.00 | 0.00 | 77 | 1017.0 |
| 20260901212050 | 62 | 273 | 0.9 | 5.2 | 0.00 | 0.00 | 0.00 | 76 | 1017.0 |
| 20260901211550 | 62 | 331 | 0.9 | 5.2 | 0.00 | 0.00 | 0.00 | 76 | 1017.1 |
| 20260901211050 | 62 | 320 | 0.9 | 3.5 | 0.00 | 0.00 | 0.00 | 76 | 1017.2 |
| 20260901210549 | 62 | 132 | 0.0 | 3.5 | 0.00 | 0.00 | 0.00 | 76 | 1017.1 |
| 20260901210049 | 62 | 309 | 0.0 | 3.5 | 0.00 | 0.00 | 0.00 | 76 | 1017.1 |
| 20260901205549 | 62 | 284 | 0.0 | 3.5 | 0.00 | 0.00 | 0.00 | 76 | 1017.2 |
| 20260901205049 | 62 | 19 | 0.0 | 3.5 | 0.00 | 0.00 | 0.00 | 76 | 1017.1 |
| 20260901204551 | 62 | 315 | 0.0 | 3.5 | 0.00 | 0.00 | 0.00 | 76 | 1017.1 |
| 20260901204048 | 62 | 331 | 0.9 | 3.5 | 0.00 | 0.00 | 0.00 | 76 | 1017.2 |
| 20260901203548 | 62 | 184 | 0.0 | 2.6 | 0.00 | 0.00 | 0.00 | 76 | 1017.2 |
| 20260901203100 | 62 | 339 | 0.0 | 3.5 | 0.00 | 0.00 | 0.00 | 76 | 1017.2 |
| 20260901202548 | 62 | 339 | 0.0 | 3.5 | 0.00 | 0.00 | 0.00 | 75 | 1017.3 |
| 20260901202048 | 62 | 346 | 0.0 | 2.6 | 0.00 | 0.00 | 0.00 | 76 | 1017.3 |
| 20260901201550 | 62 | 131 | 0.0 | 1.7 | 0.00 | 0.00 | 0.00 | 75 | 1017.4 |
| 20260901201048 | 63 | 121 | 0.0 | 1.7 | 0.00 | 0.00 | 0.00 | 75 | 1017.4 |
| 20260901200547 | 63 | 53 | 0.0 | 1.7 | 0.00 | 0.00 | 0.00 | 74 | 1017.4 |
| 20260901200046 | 63 | 34 | 0.0 | 0.9 | 0.00 | 0.00 | 0.00 | 74 | 1017.4 |
| 20260901195546 | 63 | 32 | 0.0 | 1.7 | 0.00 | 0.00 | 0.00 | 73 | 1017.5 |
| 20260901195047 | 63 | 13 | 0.0 | 1.7 | 0.00 | 0.00 | 0.00 | 73 | 1017.4 |
| 20260901194546 | 63 | 346 | 0.0 | 2.6 | 0.00 | 0.00 | 0.00 | 72 | 1017.3 |
| 20260901194047 | 63 | 346 | 0.0 | 2.6 | 0.00 | 0.00 | 0.00 | 71 | 1017.2 |
| 20260901193546 | 63 | 346 | 0.0 | 2.6 | 0.00 | 0.00 | 0.00 | 71 | 1017.2 |
| 20260901193055 | 63 | 348 | 0.0 | 2.6 | 0.00 | 0.00 | 0.00 | 71 | 1017.2 |
| 20260901192545 | 64 | 348 | 0.0 | 2.6 | 0.00 | 0.00 | 0.00 | 70 | 1017.2 |
| 20260901192046 | 64 | 321 | 0.0 | 2.6 | 0.00 | 0.00 | 0.00 | 70 | 1017.3 |
| 20260901191549 | 64 | 321 | 0.0 | 2.6 | 0.00 | 0.00 | 0.00 | 70 | 1017.3 |
| 20260901191046 | 64 | 321 | 0.9 | 3.5 | 0.00 | 0.00 | 0.00 | 69 | 1017.2 |
| 20260901190547 | 64 | 321 | 0.9 | 3.5 | 0.00 | 0.00 | 0.00 | 68 | 1017.1 |
| 20260901190046 | 64 | 319 | 0.9 | 4.3 | 0.00 | 0.00 | 0.00 | 68 | 1017.0 |
| 20260901185545 | 65 | 319 | 0.9 | 4.3 | 0.00 | 0.00 | 0.00 | 67 | 1017.0 |
| 20260901185045 | 65 | 315 | 0.9 | 7.0 | 0.00 | 0.00 | 0.00 | 67 | 1017.1 |
| 20260901184547 | 65 | 309 | 0.0 | 7.8 | 0.00 | 0.00 | 0.00 | 66 | 1017.1 |
| 20260901184044 | 65 | 293 | 0.9 | 8.7 | 0.00 | 0.00 | 0.00 | 66 | 1017.0 |
| 20260901183546 | 65 | 279 | 2.6 | 8.7 | 0.00 | 0.00 | 0.00 | 66 | 1017.1 |
| 20260901183043 | 66 | 302 | 0.9 | 4.3 | 0.00 | 0.00 | 0.00 | 66 | 1017.1 |
| 20260901182546 | 66 | 317 | 0.9 | 8.7 | 0.00 | 0.00 | 0.00 | 65 | 1017.0 |
| 20260901182044 | 66 | 291 | 1.7 | 8.7 | 0.00 | 0.00 | 0.00 | 65 | 1017.0 |
| 20260901181543 | 66 | 328 | 1.7 | 6.1 | 0.00 | 0.00 | 0.00 | 64 | 1017.0 |
| 20260901181043 | 66 | 293 | 1.7 | 7.8 | 0.00 | 0.00 | 0.00 | 64 | 1017.0 |
| 20260901180547 | 67 | 288 | 2.6 | 7.8 | 0.00 | 0.00 | 0.00 | 63 | 1017.0 |
| 20260901180042 | 67 | 286 | 3.5 | 7.8 | 0.00 | 0.00 | 0.00 | 63 | 1017.0 |
| 20260901175544 | 67 | 292 | 2.6 | 7.8 | 0.00 | 0.00 | 0.00 | 63 | 1017.0 |
| 20260901175042 | 67 | 304 | 3.5 | 7.0 | 0.00 | 0.00 | 0.00 | 63 | 1017.1 |
| 20260901174542 | 67 | 282 | 2.6 | 7.8 | 0.00 | 0.00 | 0.00 | 63 | 1017.0 |
| 20260901174042 | 67 | 317 | 4.3 | 7.8 | 0.00 | 0.00 | 0.00 | 62 | 1016.9 |
| 20260901173542 | 67 | 160 | 0.9 | 7.0 | 0.00 | 0.00 | 0.00 | 63 | 1016.9 |
| 20260901173042 | 68 | 311 | 1.7 | 7.0 | 0.00 | 0.00 | 0.00 | 63 | 1016.9 |
| 20260901172541 | 68 | 294 | 1.7 | 11.3 | 0.00 | 0.00 | 0.00 | 63 | 1017.0 |
| 20260901172041 | 68 | 282 | 3.5 | 11.3 | 0.00 | 0.00 | 0.00 | 63 | 1017.1 |
| 20260901171542 | 68 | 297 | 1.7 | 7.8 | 0.00 | 0.00 | 0.00 | 63 | 1017.0 |
| 20260901171041 | 68 | 294 | 1.7 | 10.4 | 0.00 | 0.00 | 0.00 | 63 | 1017.0 |
| 20260901170541 | 68 | 292 | 4.3 | 13.0 | 0.00 | 0.00 | 0.00 | 62 | 1017.0 |
| 20260901170041 | 68 | 286 | 2.6 | 13.0 | 0.00 | 0.00 | 0.00 | 62 | 1016.9 |
| 20260901165542 | 68 | 311 | 2.6 | 8.7 | 0.00 | 0.00 | 0.00 | 61 | 1016.9 |
| 20260901165040 | 68 | 290 | 5.2 | 8.7 | 0.00 | 0.00 | 0.00 | 61 | 1016.9 |
| 20260901164540 | 69 | 297 | 2.6 | 7.8 | 0.00 | 0.00 | 0.00 | 61 | 1016.8 |
| 20260901164041 | 69 | 266 | 1.7 | 7.8 | 0.00 | 0.00 | 0.00 | 60 | 1016.6 |
| 20260901163539 | 69 | 302 | 2.6 | 7.0 | 0.00 | 0.00 | 0.00 | 60 | 1016.8 |
| 20260901163039 | 69 | 298 | 2.6 | 8.7 | 0.00 | 0.00 | 0.00 | 60 | 1016.8 |
| 20260901162538 | 69 | 302 | 1.7 | 8.7 | 0.00 | 0.00 | 0.00 | 59 | 1016.8 |
| 20260901162039 | 69 | 292 | 1.7 | 9.6 | 0.00 | 0.00 | 0.00 | 58 | 1016.9 |
| 20260901161544 | 70 | 291 | 3.5 | 9.6 | 0.00 | 0.00 | 0.00 | 58 | 1016.8 |
| 20260901161042 | 70 | 287 | 2.6 | 8.7 | 0.00 | 0.00 | 0.00 | 59 | 1016.8 |
| 20260901160538 | 70 | 323 | 2.6 | 9.6 | 0.00 | 0.00 | 0.00 | 59 | 1016.9 |
| 20260901160050 | 70 | 266 | 5.2 | 9.6 | 0.00 | 0.00 | 0.00 | 57 | 1017.0 |
| 20260901155537 | 71 | 286 | 2.6 | 8.7 | 0.00 | 0.00 | 0.00 | 57 | 1017.0 |
| 20260901155040 | 71 | 299 | 4.3 | 13.0 | 0.00 | 0.00 | 0.00 | 57 | 1017.1 |
| 20260901154537 | 71 | 306 | 5.2 | 13.0 | 0.00 | 0.00 | 0.00 | 55 | 1016.9 |
| 20260901154036 | 71 | 264 | 3.5 | 10.4 | 0.00 | 0.00 | 0.00 | 55 | 1016.7 |
| 20260901153536 | 71 | 277 | 5.2 | 10.4 | 0.00 | 0.00 | 0.00 | 54 | 1016.8 |
| 20260901153039 | 72 | 298 | 3.5 | 10.4 | 0.00 | 0.00 | 0.00 | 54 | 1016.8 |
| 20260901152534 | 71 | 292 | 2.6 | 10.4 | 0.00 | 0.00 | 0.00 | 56 | 1016.8 |
| 20260901152033 | 71 | 298 | 3.5 | 10.4 | 0.00 | 0.00 | 0.00 | 58 | 1016.9 |
| 20260901151532 | 70 | 300 | 3.5 | 10.4 | 0.00 | 0.00 | 0.00 | 57 | 1017.0 |
| 20260901151032 | 70 | 288 | 3.5 | 7.0 | 0.00 | 0.00 | 0.00 | 59 | 1017.0 |
| 20260901150531 | 70 | 291 | 1.7 | 7.0 | 0.00 | 0.00 | 0.00 | 59 | 1017.0 |
| 20260901150033 | 70 | 328 | 1.7 | 8.7 | 0.00 | 0.00 | 0.00 | 61 | 1016.9 |
| 20260901145531 | 70 | 295 | 3.5 | 8.7 | 0.00 | 0.00 | 0.00 | 60 | 1016.9 |
| 20260901145030 | 70 | 287 | 1.7 | 7.8 | 0.00 | 0.00 | 0.00 | 61 | 1016.9 |
| 20260901144531 | 69 | 321 | 1.7 | 7.8 | 0.00 | 0.00 | 0.00 | 60 | 1016.9 |
| 20260901144029 | 69 | 340 | 2.6 | 7.8 | 0.00 | 0.00 | 0.00 | 62 | 1016.9 |
| 20260901143529 | 69 | 323 | 2.6 | 7.8 | 0.00 | 0.00 | 0.00 | 61 | 1017.0 |
| 20260901143031 | 69 | 327 | 2.6 | 9.6 | 0.00 | 0.00 | 0.00 | 61 | 1017.0 |
| 20260901142527 | 69 | 148 | 2.6 | 9.6 | 0.00 | 0.00 | 0.00 | 61 | 1017.0 |
| 20260901142027 | 69 | 315 | 2.6 | 11.3 | 0.00 | 0.00 | 0.00 | 61 | 1017.1 |
| 20260901141529 | 69 | 304 | 2.6 | 9.6 | 0.00 | 0.00 | 0.00 | 61 | 1017.1 |
| 20260901141028 | 69 | 281 | 4.3 | 9.6 | 0.00 | 0.00 | 0.00 | 61 | 1017.1 |
| 20260901140527 | 69 | 314 | 3.5 | 11.3 | 0.00 | 0.00 | 0.00 | 61 | 1017.2 |
| 20260901140026 | 69 | 294 | 5.2 | 13.0 | 0.00 | 0.00 | 0.00 | 61 | 1017.2 |
| 20260901135526 | 69 | 306 | 3.5 | 13.0 | 0.00 | 0.00 | 0.00 | 61 | 1017.2 |
| 20260901135026 | 69 | 298 | 3.5 | 9.6 | 0.00 | 0.00 | 0.00 | 61 | 1017.1 |
| 20260901134543 | 69 | 360 | 3.5 | 9.6 | 0.00 | 0.00 | 0.00 | 62 | 1017.1 |
| 20260901134025 | 68 | 347 | 0.9 | 7.0 | 0.00 | 0.00 | 0.00 | 64 | 1017.2 |
| 20260901133526 | 68 | 342 | 1.7 | 7.8 | 0.00 | 0.00 | 0.00 | 63 | 1017.1 |
| 20260901133026 | 68 | 288 | 1.7 | 8.7 | 0.00 | 0.00 | 0.00 | 63 | 1017.3 |
| 20260901132526 | 68 | 293 | 1.7 | 8.7 | 0.00 | 0.00 | 0.00 | 63 | 1017.3 |
| 20260901132026 | 68 | 319 | 2.6 | 9.6 | 0.00 | 0.00 | 0.00 | 64 | 1017.3 |
| 20260901131526 | 68 | 306 | 3.5 | 9.6 | 0.00 | 0.00 | 0.00 | 63 | 1017.3 |
| 20260901131025 | 68 | 332 | 4.3 | 9.6 | 0.00 | 0.00 | 0.00 | 62 | 1017.3 |
| 20260901130527 | 69 | 323 | 4.3 | 9.6 | 0.00 | 0.00 | 0.00 | 62 | 1017.3 |
| 20260901130028 | 69 | 302 | 2.6 | 8.7 | 0.00 | 0.00 | 0.00 | 62 | 1017.2 |
| 20260901125524 | 69 | 324 | 3.5 | 10.4 | 0.00 | 0.00 | 0.00 | 62 | 1017.3 |
| 20260901125024 | 69 | 298 | 5.2 | 10.4 | 0.00 | 0.00 | 0.00 | 61 | 1017.3 |
| 20260901124527 | 69 | 291 | 1.7 | 7.8 | 0.00 | 0.00 | 0.00 | 62 | 1017.3 |
| 20260901124025 | 69 | 355 | 4.3 | 9.6 | 0.00 | 0.00 | 0.00 | 60 | 1017.3 |
| 20260901123523 | 69 | 267 | 3.5 | 11.3 | 0.00 | 0.00 | 0.00 | 61 | 1017.3 |
| 20260901123023 | 69 | 299 | 3.5 | 11.3 | 0.00 | 0.00 | 0.00 | 60 | 1017.3 |
| 20260901122523 | 69 | 13 | 3.5 | 11.3 | 0.00 | 0.00 | 0.00 | 60 | 1017.4 |
| 20260901122022 | 69 | 294 | 4.3 | 11.3 | 0.00 | 0.00 | 0.00 | 59 | 1017.3 |
| 20260901121524 | 69 | 305 | 1.7 | 7.0 | 0.00 | 0.00 | 0.00 | 61 | 1017.3 |
| 20260901121022 | 69 | 328 | 1.7 | 12.2 | 0.00 | 0.00 | 0.00 | 61 | 1017.3 |
| 20260901120525 | 69 | 289 | 4.3 | 12.2 | 0.00 | 0.00 | 0.00 | 59 | 1017.3 |
| 20260901120020 | 70 | 327 | 3.5 | 9.6 | 0.00 | 0.00 | 0.00 | 58 | 1017.3 |
| 20260901115521 | 69 | 296 | 4.3 | 9.6 | 0.00 | 0.00 | 0.00 | 60 | 1017.4 |
| 20260901115027 | 69 | 112 | 1.7 | 9.6 | 0.00 | 0.00 | 0.00 | 61 | 1017.3 |
| 20260901114526 | 69 | 302 | 3.5 | 10.4 | 0.00 | 0.00 | 0.00 | 60 | 1017.3 |
| 20260901114019 | 69 | 22 | 4.3 | 12.2 | 0.00 | 0.00 | 0.00 | 59 | 1017.4 |
| 20260901113521 | 69 | 244 | 2.6 | 12.2 | 0.00 | 0.00 | 0.00 | 62 | 1017.3 |